Time;durP1;ratioP1;P1;durP2;ratioP2;P2;SDS_P1;SDS_P2;PMS_P1;PMS_P2;Temp;Humidity;BMP_temperature;BMP_pressure;BME280_temperature;BME280_humidity;BME280_pressure;Samples;Min_cycle;Max_cycle;Signal;HPM_P1;HPM_P2
2022/10/27 00:00:34;;;;;;;10.52;4.00;;;14.10;99.90;;;;;;5051554;28;20041;-80
2022/10/27 00:03:00;;;;;;;12.70;4.20;;;14.10;99.90;;;;;;5050944;28;20084;-79
2022/10/27 00:05:26;;;;;;;7.57;3.22;;;14.10;99.90;;;;;;5067870;28;20076;-79
2022/10/27 00:07:51;;;;;;;10.00;3.88;;;14.10;99.90;;;;;;5068791;28;20485;-80
2022/10/27 00:10:17;;;;;;;9.25;4.03;;;14.00;99.90;;;;;;5067522;28;20032;-80
2022/10/27 00:12:43;;;;;;;8.50;3.72;;;14.00;99.90;;;;;;5068137;28;20409;-79
2022/10/27 00:15:10;;;;;;;8.18;4.20;;;14.10;99.90;;;;;;5051159;28;20041;-80
2022/10/27 00:17:36;;;;;;;9.38;4.20;;;14.00;99.90;;;;;;5068486;28;20044;-80
2022/10/27 00:20:02;;;;;;;7.97;3.92;;;14.00;99.90;;;;;;5067224;28;20370;-79
2022/10/27 00:22:27;;;;;;;8.20;4.32;;;14.00;99.90;;;;;;5050830;28;20037;-79
2022/10/27 00:24:53;;;;;;;9.57;4.30;;;14.10;99.90;;;;;;5050870;28;20116;-79
2022/10/27 00:27:19;;;;;;;9.63;4.35;;;13.90;99.90;;;;;;5051593;28;20503;-79
2022/10/27 00:29:44;;;;;;;8.70;4.10;;;13.90;99.90;;;;;;5051510;28;20041;-79
2022/10/27 00:32:10;;;;;;;9.40;4.35;;;13.90;99.90;;;;;;5050497;28;20040;-79
2022/10/27 00:34:35;;;;;;;8.57;4.45;;;13.80;99.90;;;;;;5051071;28;20124;-80
2022/10/27 00:37:01;;;;;;;9.13;4.20;;;13.90;99.90;;;;;;5051011;28;20037;-80
2022/10/27 00:39:26;;;;;;;8.50;4.40;;;13.80;99.90;;;;;;5051405;28;20037;-79
2022/10/27 00:41:52;;;;;;;10.55;4.93;;;13.80;99.90;;;;;;5051451;28;20044;-79
2022/10/27 00:44:37;;;;;;;10.23;4.53;;;13.80;99.90;;;;;;5050660;28;20037;-79
2022/10/27 00:47:08;;;;;;;9.18;4.22;;;13.80;99.90;;;;;;5051609;28;20099;-79
2022/10/27 00:49:57;;;;;;;9.32;4.85;;;13.90;99.90;;;;;;5053425;28;20179;-79
2022/10/27 00:52:34;;;;;;;11.73;4.80;;;13.80;99.90;;;;;;5053869;28;20047;-79
2022/10/27 00:55:06;;;;;;;8.45;4.45;;;13.80;99.90;;;;;;5054306;28;20090;-79
2022/10/27 00:57:33;;;;;;;9.80;4.45;;;13.80;99.90;;;;;;5055172;28;20056;-78
2022/10/27 01:00:02;;;;;;;9.63;4.78;;;13.80;99.90;;;;;;5054642;28;20044;-79
2022/10/27 01:02:28;;;;;;;9.57;4.45;;;13.80;99.90;;;;;;5054778;28;20068;-78
2022/10/27 01:05:02;;;;;;;9.00;4.43;;;13.70;99.90;;;;;;5054104;28;20041;-79
2022/10/27 01:07:28;;;;;;;10.40;4.75;;;13.70;99.90;;;;;;5055209;28;20033;-79
2022/10/27 01:09:54;;;;;;;12.05;4.82;;;13.70;99.90;;;;;;5054992;28;20052;-79
2022/10/27 01:12:20;;;;;;;9.32;5.00;;;13.80;99.90;;;;;;5036457;28;20419;-79
2022/10/27 01:14:46;;;;;;;7.80;4.30;;;13.70;99.90;;;;;;5071430;28;20041;-79
2022/10/27 01:17:32;;;;;;;10.95;4.15;;;13.70;99.90;;;;;;5054744;28;20044;-79
2022/10/27 01:20:17;;;;;;;9.80;4.38;;;13.70;99.90;;;;;;5054808;28;20059;-79
2022/10/27 01:22:57;;;;;;;7.53;4.22;;;13.60;99.90;;;;;;5069842;28;20052;-79
2022/10/27 01:26:00;;;;;;;12.20;5.18;;;13.60;99.90;;;;;;5054153;28;20094;-79
2022/10/27 01:28:48;;;;;;;9.85;4.72;;;13.60;99.90;;;;;;5054259;28;20048;-79
2022/10/27 01:31:22;;;;;;;8.98;4.85;;;13.60;99.90;;;;;;5037883;28;20508;-79
2022/10/27 01:33:52;;;;;;;9.27;5.25;;;13.60;99.90;;;;;;5050456;28;20045;-79
2022/10/27 01:36:26;;;;;;;10.85;5.38;;;13.60;99.90;;;;;;5034276;28;20517;-79
2022/10/27 01:39:07;;;;;;;12.52;5.40;;;13.60;99.90;;;;;;5034602;28;20072;-80
2022/10/27 01:41:38;;;;;;;9.02;5.30;;;13.60;99.90;;;;;;5046239;28;20512;-79
2022/10/27 01:44:10;;;;;;;10.18;5.22;;;13.60;99.90;;;;;;5070892;28;20056;-78
2022/10/27 01:46:36;;;;;;;11.85;5.90;;;13.70;99.90;;;;;;5054208;28;20068;-78
2022/10/27 01:49:06;;;;;;;9.27;6.03;;;13.70;99.90;;;;;;5054382;28;20086;-78
2022/10/27 01:51:32;;;;;;;12.50;6.30;;;13.70;99.90;;;;;;5053258;28;20040;-78
2022/10/27 01:53:57;;;;;;;13.57;6.45;;;13.80;99.90;;;;;;5070761;28;20040;-78
2022/10/27 01:57:02;;;;;;;11.32;6.30;;;13.80;99.90;;;;;;5053923;28;20094;-79
2022/10/27 01:59:53;;;;;;;12.02;5.65;;;13.80;99.90;;;;;;5069665;28;20048;-79
2022/10/27 02:02:39;;;;;;;10.60;6.30;;;13.80;99.90;;;;;;5064569;28;20049;-78
2022/10/27 02:05:05;;;;;;;14.13;6.13;;;13.80;99.90;;;;;;5039647;28;20106;-79
2022/10/27 02:07:59;;;;;;;12.38;7.03;;;13.80;99.90;;;;;;5052974;28;20041;-79
2022/10/27 02:10:30;;;;;;;11.80;6.30;;;13.80;99.90;;;;;;5048537;28;20128;-79
2022/10/27 02:12:56;;;;;;;8.75;5.75;;;13.80;99.90;;;;;;5054018;28;20037;-79
2022/10/27 02:15:25;;;;;;;9.15;5.85;;;13.80;99.90;;;;;;5053536;28;20124;-79
2022/10/27 02:17:55;;;;;;;11.63;6.57;;;13.70;99.90;;;;;;5036963;28;20041;-79
2022/10/27 02:20:24;;;;;;;10.93;5.72;;;13.70;99.90;;;;;;5052643;28;20171;-80
2022/10/27 02:22:54;;;;;;;13.35;6.45;;;13.60;99.90;;;;;;5036220;28;20041;-80
2022/10/27 02:25:23;;;;;;;13.50;6.40;;;13.60;99.90;;;;;;5069789;28;20078;-79
2022/10/27 02:27:53;;;;;;;12.02;6.47;;;13.70;99.90;;;;;;5053473;28;20115;-79
2022/10/27 02:30:20;;;;;;;11.88;6.10;;;13.70;99.90;;;;;;5069025;28;20033;-79
2022/10/27 02:32:46;;;;;;;11.15;6.30;;;13.60;99.90;;;;;;5053351;28;20124;-79
2022/10/27 02:35:14;;;;;;;13.18;7.05;;;13.60;99.90;;;;;;5035535;28;20132;-79
2022/10/27 02:37:42;;;;;;;10.52;6.07;;;13.60;99.90;;;;;;5070131;28;20045;-79
2022/10/27 02:40:08;;;;;;;11.95;6.28;;;13.60;99.90;;;;;;5069253;28;20040;-79
2022/10/27 02:42:34;;;;;;;11.35;6.60;;;13.70;99.90;;;;;;5069640;28;20051;-79
2022/10/27 02:45:00;;;;;;;16.15;6.63;;;13.70;99.90;;;;;;5069306;28;20037;-79
2022/10/27 02:47:25;;;;;;;14.93;8.02;;;13.70;99.90;;;;;;5053093;28;20040;-79
2022/10/27 02:49:51;;;;;;;13.68;7.18;;;13.70;99.90;;;;;;5052198;28;20037;-79
2022/10/27 02:52:17;;;;;;;16.17;7.90;;;13.70;99.90;;;;;;5053012;28;20041;-79
2022/10/27 02:54:47;;;;;;;12.85;6.88;;;13.60;99.90;;;;;;5052878;28;20136;-80
2022/10/27 02:57:16;;;;;;;10.57;6.82;;;13.60;99.90;;;;;;5068839;28;20094;-79
2022/10/27 02:59:42;;;;;;;12.85;6.90;;;13.50;99.90;;;;;;5035827;28;20040;-79
2022/10/27 03:02:08;;;;;;;11.98;6.75;;;13.40;99.90;;;;;;5052377;28;20056;-79
2022/10/27 03:04:34;;;;;;;10.77;6.70;;;13.40;99.90;;;;;;5051751;28;20049;-79
2022/10/27 03:06:59;;;;;;;12.43;6.47;;;13.40;99.90;;;;;;5036111;28;20033;-79
2022/10/27 03:09:25;;;;;;;9.60;6.78;;;13.40;99.90;;;;;;5051649;28;20403;-79
2022/10/27 03:11:51;;;;;;;9.48;5.70;;;13.40;99.90;;;;;;5050426;28;20472;-79
2022/10/27 03:14:16;;;;;;;11.82;7.22;;;13.40;99.90;;;;;;5052502;28;20036;-79
2022/10/27 03:16:42;;;;;;;11.52;6.30;;;13.50;99.90;;;;;;5052849;28;20048;-79
2022/10/27 03:19:07;;;;;;;12.07;7.00;;;13.50;99.90;;;;;;5068174;28;20056;-79
2022/10/27 03:21:33;;;;;;;13.52;6.70;;;13.60;99.90;;;;;;5052755;28;20094;-80
2022/10/27 03:23:59;;;;;;;12.85;7.18;;;13.70;99.90;;;;;;5052357;28;20041;-80
2022/10/27 03:26:24;;;;;;;13.38;7.15;;;13.70;99.90;;;;;;5051500;28;20060;-80
2022/10/27 03:28:50;;;;;;;15.10;6.70;;;13.80;99.90;;;;;;5035407;28;20043;-79
2022/10/27 03:31:15;;;;;;;11.45;6.43;;;13.80;99.90;;;;;;5069216;28;20033;-80
2022/10/27 03:33:41;;;;;;;12.13;6.80;;;13.80;99.90;;;;;;5068878;28;20044;-80
2022/10/27 03:36:07;;;;;;;11.52;6.50;;;13.80;99.90;;;;;;5051900;28;20037;-79
2022/10/27 03:38:32;;;;;;;11.30;7.15;;;13.80;99.90;;;;;;5052149;28;20048;-79
2022/10/27 03:40:58;;;;;;;11.90;6.22;;;13.70;99.90;;;;;;5068303;28;20040;-80
2022/10/27 03:43:23;;;;;;;15.13;7.72;;;13.70;99.90;;;;;;5035473;28;20040;-80
2022/10/27 03:45:49;;;;;;;11.95;6.82;;;13.70;99.90;;;;;;5068466;28;20449;-80
2022/10/27 03:48:16;;;;;;;12.10;6.63;;;13.80;99.90;;;;;;5068847;28;20047;-80
2022/10/27 03:50:46;;;;;;;11.55;6.45;;;13.80;99.90;;;;;;5067956;28;20512;-79
2022/10/27 03:53:12;;;;;;;12.15;7.10;;;13.70;99.90;;;;;;5069080;28;20048;-79
2022/10/27 03:55:38;;;;;;;12.15;6.53;;;13.70;99.90;;;;;;5067316;28;20041;-79
2022/10/27 03:58:03;;;;;;;11.07;6.32;;;13.80;99.90;;;;;;5051847;28;20041;-78
2022/10/27 04:00:31;;;;;;;12.98;6.50;;;13.70;99.90;;;;;;5048905;28;20044;-79
2022/10/27 04:02:57;;;;;;;10.73;6.28;;;13.80;99.90;;;;;;5049756;28;20060;-78
2022/10/27 04:05:23;;;;;;;14.30;6.43;;;13.70;99.90;;;;;;5035519;28;20037;-79
2022/10/27 04:07:48;;;;;;;10.27;6.70;;;13.70;99.90;;;;;;5068785;28;20511;-79
2022/10/27 04:10:14;;;;;;;9.93;6.70;;;13.70;99.90;;;;;;5050767;28;20521;-79
2022/10/27 04:12:50;;;;;;;14.60;7.18;;;13.80;99.90;;;;;;5034152;28;20051;-80
2022/10/27 04:15:17;;;;;;;12.77;6.63;;;13.80;99.90;;;;;;5068948;28;20086;-80
2022/10/27 04:17:42;;;;;;;12.60;6.70;;;13.80;99.90;;;;;;5051824;28;20056;-80
2022/10/27 04:20:08;;;;;;;10.38;6.53;;;13.80;99.90;;;;;;5050826;28;20402;-80
2022/10/27 04:22:34;;;;;;;13.98;7.20;;;13.90;99.90;;;;;;5051760;28;20113;-80
2022/10/27 04:24:59;;;;;;;12.52;7.50;;;13.80;99.90;;;;;;5054657;28;20040;-79
2022/10/27 04:27:25;;;;;;;12.27;6.78;;;13.80;99.90;;;;;;5038316;28;20409;-79
2022/10/27 04:29:50;;;;;;;12.48;6.82;;;13.80;99.90;;;;;;5054591;28;20043;-79
2022/10/27 04:32:16;;;;;;;12.90;7.22;;;13.80;99.90;;;;;;5071630;28;20167;-79
2022/10/27 04:34:41;;;;;;;12.20;6.95;;;13.80;99.90;;;;;;5055586;28;20041;-79
2022/10/27 04:37:07;;;;;;;12.60;7.30;;;13.80;99.90;;;;;;5055074;28;20041;-78
2022/10/27 04:39:32;;;;;;;12.52;7.30;;;13.70;99.90;;;;;;5071135;28;20039;-78
2022/10/27 04:41:58;;;;;;;12.82;7.13;;;13.70;99.90;;;;;;5055308;28;20448;-79
2022/10/27 04:44:24;;;;;;;15.18;7.22;;;13.70;99.90;;;;;;5055383;28;20040;-79
2022/10/27 04:46:49;;;;;;;13.55;7.18;;;13.70;99.90;;;;;;5071265;28;20036;-79
2022/10/27 04:49:15;;;;;;;13.05;7.63;;;13.70;99.90;;;;;;5071801;28;20048;-79
2022/10/27 04:51:40;;;;;;;12.18;7.55;;;13.80;99.90;;;;;;5038490;28;20128;-79
2022/10/27 04:54:06;;;;;;;13.80;6.82;;;13.70;99.90;;;;;;5055320;28;20127;-80
2022/10/27 04:56:31;;;;;;;12.30;7.20;;;13.80;99.90;;;;;;5054583;28;20072;-79
2022/10/27 04:58:57;;;;;;;18.17;8.05;;;13.70;99.90;;;;;;5069091;28;20107;-79
2022/10/27 05:01:22;;;;;;;13.02;7.57;;;13.80;99.90;;;;;;5053483;28;20416;-79
2022/10/27 05:03:49;;;;;;;12.90;8.20;;;13.70;99.90;;;;;;5054883;28;20045;-79
2022/10/27 05:06:15;;;;;;;13.60;7.88;;;13.70;99.90;;;;;;5055191;28;20041;-79
2022/10/27 05:08:40;;;;;;;13.85;8.18;;;13.70;99.90;;;;;;5054085;28;20108;-80
2022/10/27 05:11:06;;;;;;;15.98;7.80;;;13.80;99.90;;;;;;5035236;28;20038;-80
2022/10/27 05:13:32;;;;;;;13.10;7.88;;;13.80;99.90;;;;;;5034763;28;20049;-79
2022/10/27 05:16:02;;;;;;;14.05;7.80;;;13.70;99.90;;;;;;5042346;28;20071;-79
2022/10/27 05:18:27;;;;;;;12.55;7.63;;;13.70;99.90;;;;;;5055019;28;20408;-79
2022/10/27 05:20:53;;;;;;;13.38;8.38;;;13.70;99.90;;;;;;5053556;28;20040;-79
2022/10/27 05:23:19;;;;;;;14.77;8.27;;;13.60;99.90;;;;;;5054478;28;20047;-79
2022/10/27 05:25:52;;;;;;;11.70;7.85;;;13.70;99.90;;;;;;5053987;28;20060;-79
2022/10/27 05:28:18;;;;;;;15.10;8.18;;;13.70;99.90;;;;;;5037564;28;20041;-79
2022/10/27 05:30:44;;;;;;;13.50;8.45;;;13.60;99.90;;;;;;5054327;28;20485;-79
2022/10/27 05:33:10;;;;;;;15.88;9.00;;;13.70;99.90;;;;;;5071072;28;20048;-79
2022/10/27 05:35:35;;;;;;;13.80;8.30;;;13.70;99.90;;;;;;5070000;28;20396;-79
2022/10/27 05:38:01;;;;;;;13.90;8.15;;;13.80;99.90;;;;;;5054637;28;20049;-79
2022/10/27 05:40:33;;;;;;;14.65;8.13;;;13.80;99.90;;;;;;5053429;28;20456;-79
2022/10/27 05:42:59;;;;;;;11.65;8.00;;;13.80;99.90;;;;;;5071015;28;20045;-78
2022/10/27 05:45:26;;;;;;;15.93;9.60;;;13.80;99.90;;;;;;5053587;28;20531;-79
2022/10/27 05:48:03;;;;;;;13.57;8.68;;;13.70;99.90;;;;;;5037620;28;20040;-79
2022/10/27 05:50:29;;;;;;;15.32;8.50;;;13.70;99.90;;;;;;5036859;28;20090;-78
2022/10/27 05:52:55;;;;;;;12.50;8.43;;;13.70;99.90;;;;;;5070660;28;20032;-79
2022/10/27 05:55:22;;;;;;;12.63;8.18;;;13.70;99.90;;;;;;5070253;28;20071;-79
2022/10/27 05:58:01;;;;;;;12.80;8.38;;;13.70;99.90;;;;;;5048705;28;20049;-79
2022/10/27 06:00:31;;;;;;;14.93;8.88;;;13.70;99.90;;;;;;5028064;28;20550;-79
2022/10/27 06:02:58;;;;;;;14.93;8.60;;;13.70;99.90;;;;;;5070278;28;20517;-79
2022/10/27 06:05:25;;;;;;;13.90;7.55;;;13.70;99.90;;;;;;5069795;28;20064;-79
2022/10/27 06:07:50;;;;;;;13.93;9.18;;;13.70;99.90;;;;;;5054127;28;20398;-79
2022/10/27 06:10:16;;;;;;;13.18;8.63;;;13.70;99.90;;;;;;5052654;28;20036;-79
2022/10/27 06:12:42;;;;;;;11.98;7.95;;;13.70;99.90;;;;;;5036240;28;20394;-79
2022/10/27 06:15:07;;;;;;;13.38;8.23;;;13.70;99.90;;;;;;5053593;28;20045;-79
2022/10/27 06:17:33;;;;;;;13.95;8.48;;;13.70;99.90;;;;;;5070358;28;20045;-79
2022/10/27 06:19:59;;;;;;;13.45;8.50;;;13.70;99.90;;;;;;5051956;28;20417;-79
2022/10/27 06:22:24;;;;;;;12.25;8.63;;;13.70;99.90;;;;;;5053350;28;20045;-79
2022/10/27 06:24:50;;;;;;;11.13;7.82;;;13.70;99.90;;;;;;5050989;28;20463;-79
2022/10/27 06:27:15;;;;;;;12.70;8.48;;;13.70;99.90;;;;;;5060597;28;20036;-79
2022/10/27 06:29:41;;;;;;;15.35;8.35;;;13.80;99.90;;;;;;5051642;28;20040;-79
2022/10/27 06:32:06;;;;;;;14.88;8.75;;;13.80;99.90;;;;;;5055506;28;20495;-79
2022/10/27 06:34:32;;;;;;;12.80;7.55;;;13.80;99.90;;;;;;5036164;28;20417;-79
2022/10/27 06:36:57;;;;;;;13.20;7.75;;;13.80;99.90;;;;;;5052841;28;20045;-79
2022/10/27 06:39:23;;;;;;;13.60;7.80;;;13.80;99.90;;;;;;5052852;28;20103;-79
2022/10/27 06:41:49;;;;;;;11.95;7.72;;;13.80;99.90;;;;;;5052362;28;20103;-79
2022/10/27 06:44:14;;;;;;;13.13;7.43;;;13.70;99.90;;;;;;5052752;28;20444;-79
2022/10/27 06:46:40;;;;;;;10.60;7.57;;;13.70;99.90;;;;;;5051636;28;20048;-79
2022/10/27 06:49:06;;;;;;;12.38;7.40;;;13.70;99.90;;;;;;5052197;28;20127;-79
2022/10/27 06:51:31;;;;;;;12.32;7.85;;;13.80;99.90;;;;;;5052990;28;20041;-80
2022/10/27 06:53:57;;;;;;;13.50;7.22;;;13.80;99.90;;;;;;5052465;28;20036;-79
2022/10/27 06:56:23;;;;;;;11.60;6.85;;;13.70;99.90;;;;;;5036246;28;20037;-79
2022/10/27 06:58:50;;;;;;;11.20;6.15;;;13.70;99.90;;;;;;5051634;28;20048;-79
2022/10/27 07:01:15;;;;;;;10.85;6.90;;;13.80;99.90;;;;;;5051448;28;20124;-80
2022/10/27 07:03:41;;;;;;;15.38;6.65;;;13.90;99.90;;;;;;5056570;28;20132;-79
2022/10/27 07:06:07;;;;;;;13.88;6.20;;;13.90;99.90;;;;;;5050361;28;20073;-80
2022/10/27 07:08:32;;;;;;;10.73;6.13;;;14.00;99.90;;;;;;5050487;28;20451;-80
2022/10/27 07:10:58;;;;;;;12.02;6.25;;;14.10;99.90;;;;;;5051142;28;20040;-79
2022/10/27 07:13:24;;;;;;;13.60;6.30;;;14.10;99.90;;;;;;5067549;28;20041;-79
2022/10/27 07:15:49;;;;;;;13.18;6.60;;;14.10;99.90;;;;;;5037931;28;20094;-79
2022/10/27 07:18:15;;;;;;;14.32;6.40;;;14.00;99.90;;;;;;5047044;28;20508;-80
2022/10/27 07:20:44;;;;;;;11.23;6.38;;;14.10;99.90;;;;;;5034183;28;20041;-80
2022/10/27 07:23:10;;;;;;;10.55;6.13;;;14.20;99.90;;;;;;5032839;28;20112;-80
2022/10/27 07:25:36;;;;;;;11.25;6.13;;;14.20;99.90;;;;;;5034510;28;20186;-80
2022/10/27 07:28:04;;;;;;;11.38;6.05;;;14.20;99.90;;;;;;5067275;28;20452;-79
2022/10/27 07:30:33;;;;;;;11.15;6.47;;;14.20;99.90;;;;;;5035809;28;20040;-80
2022/10/27 07:32:59;;;;;;;15.07;6.38;;;14.30;99.90;;;;;;5032492;28;20049;-80
2022/10/27 07:35:25;;;;;;;15.02;6.20;;;14.30;99.90;;;;;;5051824;28;20097;-80
2022/10/27 07:37:51;;;;;;;12.55;6.05;;;14.30;99.90;;;;;;5033531;28;20523;-79
2022/10/27 07:40:19;;;;;;;10.25;6.20;;;14.40;99.90;;;;;;5068114;28;20037;-80
2022/10/27 07:42:54;;;;;;;12.20;5.90;;;14.40;99.90;;;;;;5060197;28;20033;-80
2022/10/27 07:45:22;;;;;;;15.30;6.43;;;14.50;99.90;;;;;;5040209;28;20037;-80
2022/10/27 07:47:52;;;;;;;10.80;6.15;;;14.50;99.90;;;;;;5065753;28;20103;-80
2022/10/27 07:50:20;;;;;;;12.15;6.20;;;14.50;99.90;;;;;;5048781;28;20060;-80
2022/10/27 07:52:48;;;;;;;10.38;5.57;;;14.50;99.90;;;;;;5051941;28;20045;-80
2022/10/27 07:55:16;;;;;;;15.52;6.43;;;14.50;99.90;;;;;;5033475;28;20045;-79
2022/10/27 07:57:42;;;;;;;15.52;5.90;;;14.50;99.90;;;;;;5030563;28;20049;-80
2022/10/27 08:00:11;;;;;;;11.02;5.55;;;14.50;99.90;;;;;;5049463;28;20033;-80
2022/10/27 08:02:36;;;;;;;10.77;5.72;;;14.50;99.90;;;;;;5048187;28;20052;-80
2022/10/27 08:05:02;;;;;;;13.95;6.35;;;14.60;99.90;;;;;;5048411;28;20463;-80
2022/10/27 08:07:28;;;;;;;10.73;5.65;;;14.60;99.90;;;;;;5045398;28;20068;-80
2022/10/27 08:09:54;;;;;;;11.55;5.85;;;14.60;99.90;;;;;;5046237;28;20511;-80
2022/10/27 08:12:19;;;;;;;10.85;5.82;;;14.60;99.90;;;;;;5056105;28;20045;-80
2022/10/27 08:14:45;;;;;;;10.88;5.53;;;14.70;99.90;;;;;;5054609;28;20041;-80
2022/10/27 08:17:12;;;;;;;11.52;6.00;;;14.70;99.90;;;;;;5043692;28;20441;-80
2022/10/27 08:19:38;;;;;;;10.93;5.25;;;14.80;99.90;;;;;;5051592;28;20068;-80
2022/10/27 08:22:04;;;;;;;8.98;5.35;;;14.70;99.90;;;;;;5067523;28;20048;-81
2022/10/27 08:24:30;;;;;;;11.43;5.45;;;14.90;99.90;;;;;;5051738;28;20119;-81
2022/10/27 08:26:55;;;;;;;10.95;5.20;;;14.90;99.90;;;;;;5051117;28;20399;-80
2022/10/27 08:29:21;;;;;;;9.82;5.20;;;14.90;99.90;;;;;;5057116;28;20076;-80
2022/10/27 08:31:47;;;;;;;10.65;5.25;;;14.90;99.90;;;;;;5028670;28;20044;-80
2022/10/27 08:34:12;;;;;;;11.10;5.38;;;15.00;99.90;;;;;;5035334;28;20091;-80
2022/10/27 08:36:38;;;;;;;11.57;5.38;;;15.00;99.90;;;;;;5049028;28;20060;-80
2022/10/27 08:39:05;;;;;;;10.13;5.65;;;15.00;99.90;;;;;;5050503;28;20048;-80
2022/10/27 08:41:55;;;;;;;11.05;5.85;;;15.10;99.90;;;;;;5068993;28;20048;-80
2022/10/27 08:44:30;;;;;;;13.05;5.80;;;15.10;99.90;;;;;;5060349;28;20127;-80
2022/10/27 08:47:02;;;;;;;13.23;7.30;;;15.20;99.90;;;;;;5051875;28;20041;-81
2022/10/27 08:50:13;;;;;;;12.95;5.47;;;15.30;99.90;;;;;;5066598;28;20040;-80
2022/10/27 08:52:46;;;;;;;10.55;6.18;;;15.40;99.90;;;;;;4978439;28;20057;-80
2022/10/27 08:55:11;;;;;;;11.13;5.88;;;15.40;99.90;;;;;;5008673;28;20444;-81
2022/10/27 08:57:41;;;;;;;11.70;5.68;;;15.40;99.90;;;;;;5014715;28;20049;-81
2022/10/27 09:00:12;;;;;;;9.55;5.63;;;15.60;99.90;;;;;;5049243;28;20056;-79
2022/10/27 09:02:52;;;;;;;10.63;5.63;;;15.60;99.90;;;;;;5063539;28;20103;-79
2022/10/27 09:05:47;;;;;;;9.50;5.45;;;15.80;99.90;;;;;;5021375;28;20413;-79
2022/10/27 09:08:27;;;;;;;11.07;5.40;;;15.80;99.90;;;;;;5049153;28;20124;-79
2022/10/27 09:11:06;;;;;;;10.20;5.43;;;15.90;99.90;;;;;;5050921;28;20055;-78
2022/10/27 09:13:44;;;;;;;11.15;5.60;;;16.10;99.90;;;;;;5069101;28;20598;-79
2022/10/27 09:16:15;;;;;;;12.13;5.22;;;16.30;99.90;;;;;;5053871;28;20436;-79
2022/10/27 09:18:48;;;;;;;9.38;4.68;;;16.40;99.90;;;;;;5046966;28;20493;-78
2022/10/27 09:21:20;;;;;;;9.57;4.82;;;16.30;99.90;;;;;;5048714;28;20037;-79
2022/10/27 09:23:55;;;;;;;12.05;5.20;;;16.40;99.90;;;;;;5062999;28;20048;-79
2022/10/27 09:26:27;;;;;;;10.05;5.10;;;16.50;99.90;;;;;;5071036;28;20033;-79
2022/10/27 09:28:54;;;;;;;8.75;4.78;;;16.50;99.90;;;;;;5044127;28;20040;-79
2022/10/27 09:31:48;;;;;;;13.35;5.18;;;16.50;99.90;;;;;;5053321;28;20033;-79
2022/10/27 09:34:34;;;;;;;10.90;4.75;;;16.60;99.90;;;;;;5038343;28;20063;-79
2022/10/27 09:37:00;;;;;;;11.48;4.40;;;16.60;99.90;;;;;;5050790;28;20493;-79
2022/10/27 09:39:26;;;;;;;9.68;3.90;;;16.60;99.90;;;;;;5035935;28;20048;-72
2022/10/27 09:41:52;;;;;;;9.35;3.92;;;16.70;99.90;;;;;;5037343;28;20085;-70
2022/10/27 09:44:23;;;;;;;9.40;3.67;;;16.80;99.90;;;;;;5036385;28;20033;-68
2022/10/27 09:46:55;;;;;;;11.20;3.95;;;16.90;99.90;;;;;;5053407;28;20037;-80
2022/10/27 09:49:28;;;;;;;7.35;3.17;;;16.90;99.90;;;;;;5050937;28;20043;-81
2022/10/27 09:52:00;;;;;;;9.32;3.38;;;16.90;99.90;;;;;;5054421;28;20443;-82
2022/10/27 09:54:32;;;;;;;8.25;3.20;;;17.00;99.90;;;;;;5063222;28;20481;-81
2022/10/27 09:57:14;;;;;;;7.77;2.97;;;17.00;99.90;;;;;;5070385;28;20477;-81
2022/10/27 09:59:40;;;;;;;8.23;2.90;;;17.00;99.90;;;;;;5035486;28;20033;-81
2022/10/27 10:02:23;;;;;;;9.23;3.28;;;17.00;99.90;;;;;;5071232;28;20493;-81
2022/10/27 10:04:49;;;;;;;7.43;2.65;;;17.10;99.90;;;;;;5036728;28;20045;-82
2022/10/27 10:07:34;;;;;;;6.15;2.55;;;17.00;99.90;;;;;;5053513;28;20025;-81
2022/10/27 10:10:24;;;;;;;9.00;3.05;;;17.10;99.90;;;;;;5037172;28;20499;-82
2022/10/27 10:13:03;;;;;;;7.78;2.65;;;17.20;99.90;;;;;;5069559;28;20041;-81
2022/10/27 10:15:29;;;;;;;8.30;3.00;;;17.20;99.90;;;;;;5052719;28;20037;-81
2022/10/27 10:18:01;;;;;;;9.32;2.72;;;17.20;99.90;;;;;;5052670;28;20052;-81
2022/10/27 10:20:33;;;;;;;4.28;2.13;;;17.30;99.90;;;;;;5068728;28;20033;-82
2022/10/27 10:22:59;;;;;;;;;;;17.40;99.90;;;;;;5053019;28;20041;-81
2022/10/27 10:25:28;;;;;;;8.38;2.60;;;17.40;99.90;;;;;;5052502;28;19920;-81
2022/10/27 10:28:05;;;;;;;7.25;2.60;;;17.40;99.90;;;;;;5048602;28;20064;-81
2022/10/27 10:30:36;;;;;;;7.50;2.47;;;17.40;99.90;;;;;;5045725;28;20041;-81
2022/10/27 10:33:04;;;;;;;8.63;2.42;;;17.40;99.90;;;;;;5051407;28;20419;-81
2022/10/27 10:35:46;;;;;;;6.63;2.13;;;17.50;99.90;;;;;;5036048;28;20508;-81
2022/10/27 10:38:27;;;;;;;6.15;2.10;;;17.50;99.90;;;;;;5051958;28;20037;-81
2022/10/27 10:41:00;;;;;;;6.20;2.10;;;17.50;99.90;;;;;;5035558;28;20052;-81
2022/10/27 10:43:26;;;;;;;5.13;1.98;;;17.60;99.90;;;;;;5053142;28;20464;-81
2022/10/27 10:45:52;;;;;;;8.23;2.20;;;17.60;99.90;;;;;;5053038;28;20072;-81
2022/10/27 10:48:38;;;;;;;5.20;1.50;;;17.80;99.90;;;;;;5035274;28;20087;-81
2022/10/27 10:51:05;;;;;;;3.83;1.77;;;17.80;99.90;;;;;;5048197;28;20037;-81
2022/10/27 10:53:37;;;;;;;5.97;1.70;;;17.70;99.90;;;;;;5050920;28;20144;-81
2022/10/27 10:56:20;;;;;;;6.07;1.58;;;17.70;99.90;;;;;;5046191;28;20091;-81
2022/10/27 10:58:48;;;;;;;4.97;1.55;;;17.90;99.90;;;;;;5039144;28;20485;-75
2022/10/27 11:01:13;;;;;;;8.00;1.65;;;17.90;99.90;;;;;;5069492;28;20045;-81
2022/10/27 11:03:45;;;;;;;5.75;1.60;;;17.80;99.90;;;;;;5045746;28;20052;-81
2022/10/27 11:06:19;;;;;;;5.18;1.80;;;17.80;99.90;;;;;;5068286;28;20041;-81
2022/10/27 11:08:55;;;;;;;5.40;1.73;;;18.00;99.90;;;;;;5051010;28;20048;-81
2022/10/27 11:11:24;;;;;;;5.43;2.00;;;18.00;99.90;;;;;;5051789;28;20427;-81
2022/10/27 11:13:54;;;;;;;6.97;2.10;;;18.20;99.90;;;;;;5051070;28;20037;-81
2022/10/27 11:16:20;;;;;;;5.80;1.95;;;18.20;99.90;;;;;;5051596;28;20041;-81
2022/10/27 11:18:57;;;;;;;3.40;1.90;;;18.30;99.90;;;;;;5060523;28;20063;-82
2022/10/27 11:21:51;;;;;;;6.30;2.45;;;18.50;99.90;;;;;;5052139;28;20040;-82
2022/10/27 11:24:24;;;;;;;5.80;1.83;;;18.50;99.90;;;;;;5031904;28;20448;-80
2022/10/27 11:27:00;;;;;;;5.35;1.67;;;18.60;99.90;;;;;;5035056;28;20068;-81
2022/10/27 11:29:39;;;;;;;5.88;1.90;;;18.50;99.90;;;;;;5049652;28;20060;-81
2022/10/27 11:32:08;;;;;;;5.25;1.88;;;18.60;99.90;;;;;;5068585;28;20090;-81
2022/10/27 11:34:39;;;;;;;4.78;2.08;;;18.60;99.90;;;;;;5051714;28;20094;-82
2022/10/27 11:37:17;;;;;;;4.60;1.88;;;18.60;99.90;;;;;;5053002;28;20042;-81
2022/10/27 11:39:55;;;;;;;8.80;2.13;;;18.50;99.90;;;;;;5057018;28;20397;-81
2022/10/27 11:42:35;;;;;;;6.60;2.22;;;18.40;99.90;;;;;;5051030;28;20097;-81
2022/10/27 11:45:03;;;;;;;7.05;2.08;;;18.30;99.90;;;;;;5034072;28;20071;-81
2022/10/27 11:47:44;;;;;;;6.10;2.10;;;18.30;99.90;;;;;;5051273;28;20033;-81
2022/10/27 11:50:29;;;;;;;6.93;2.13;;;18.20;99.90;;;;;;5067303;28;20037;-81
2022/10/27 11:52:58;;;;;;;6.15;1.90;;;18.20;99.90;;;;;;5059702;28;20044;-81
2022/10/27 11:55:39;;;;;;;6.22;1.88;;;18.30;99.90;;;;;;5038817;28;20040;-81
2022/10/27 11:58:43;;;;;;;5.60;2.10;;;18.30;99.90;;;;;;5049877;28;20378;-81
2022/10/27 12:01:34;;;;;;;5.25;1.90;;;18.40;99.90;;;;;;5023799;28;20044;-81
2022/10/27 12:04:16;;;;;;;7.60;2.15;;;18.50;99.90;;;;;;5047311;28;20124;-81
2022/10/27 12:07:00;;;;;;;5.18;2.03;;;18.40;99.90;;;;;;5049155;28;20056;-81
2022/10/27 12:09:35;;;;;;;5.28;2.00;;;18.40;99.90;;;;;;5050011;28;20143;-81
2022/10/27 12:12:05;;;;;;;7.85;2.10;;;18.30;99.90;;;;;;5045029;28;20037;-81
2022/10/27 12:14:42;;;;;;;5.47;2.00;;;18.40;99.90;;;;;;5068326;28;20051;-81
2022/10/27 12:17:30;;;;;;;5.50;2.13;;;18.40;99.90;;;;;;5064919;28;20084;-77
2022/10/27 12:20:00;;;;;;;7.25;1.95;;;18.30;99.90;;;;;;5051766;28;20072;-79
2022/10/27 12:22:38;;;;;;;9.30;2.70;;;18.30;99.90;;;;;;5034071;28;20128;-79
2022/10/27 12:25:26;;;;;;;9.20;2.10;;;18.40;99.90;;;;;;5050963;28;20523;-79
2022/10/27 12:27:57;;;;;;;7.32;2.38;;;18.30;99.90;;;;;;5034296;28;20055;-78
2022/10/27 12:30:24;;;;;;;4.45;1.92;;;18.30;99.90;;;;;;5033933;28;20049;-79
2022/10/27 12:33:13;;;;;;;6.60;1.77;;;18.30;99.90;;;;;;5033388;28;20049;-79
2022/10/27 12:36:01;;;;;;;5.35;1.77;;;18.30;99.90;;;;;;5045318;28;20041;-79
2022/10/27 12:38:35;;;;;;;5.80;1.90;;;18.30;99.90;;;;;;5031612;28;20456;-78
2022/10/27 12:41:22;;;;;;;7.25;1.80;;;18.20;99.90;;;;;;5048569;28;20611;-79
2022/10/27 12:43:54;;;;;;;5.57;2.20;;;18.10;99.90;;;;;;5031662;28;20042;-79
2022/10/27 12:46:39;;;;;;;6.38;2.00;;;18.10;99.90;;;;;;5051731;28;20512;-78
2022/10/27 12:49:21;;;;;;;6.30;2.58;;;18.20;99.90;;;;;;5035120;28;20078;-79
2022/10/27 12:51:50;;;;;;;9.10;2.17;;;18.10;99.90;;;;;;5051457;28;20060;-79
2022/10/27 12:54:44;;;;;;;6.60;1.88;;;18.20;99.90;;;;;;5050312;28;20044;-79
2022/10/27 12:57:35;;;;;;;7.32;2.47;;;18.20;99.90;;;;;;5037400;28;20059;-81